sensor_id;sensor_type;location;lat;lon;timestamp;temperature;humidity
11221;DHT22;8517;53.546;10.104;2024-02-16T00:00:07;14.30;99.90
11221;DHT22;8517;53.546;10.104;2024-02-16T00:02:33;14.30;99.90
11221;DHT22;8517;53.546;10.104;2024-02-16T00:05:00;14.30;99.90
11221;DHT22;8517;53.546;10.104;2024-02-16T00:07:28;14.20;99.90
11221;DHT22;8517;53.546;10.104;2024-02-16T00:09:55;14.20;99.90
11221;DHT22;8517;53.546;10.104;2024-02-16T00:12:23;14.20;99.90
11221;DHT22;8517;53.546;10.104;2024-02-16T00:14:50;14.20;99.90
11221;DHT22;8517;53.546;10.104;2024-02-16T00:17:16;14.10;99.90
11221;DHT22;8517;53.546;10.104;2024-02-16T00:19:43;14.10;99.90
11221;DHT22;8517;53.546;10.104;2024-02-16T00:22:10;14.10;99.90
11221;DHT22;8517;53.546;10.104;2024-02-16T00:24:39;14.10;99.90
11221;DHT22;8517;53.546;10.104;2024-02-16T00:27:06;14.00;99.90
11221;DHT22;8517;53.546;10.104;2024-02-16T00:29:33;14.00;99.90
11221;DHT22;8517;53.546;10.104;2024-02-16T00:32:00;14.00;99.90
11221;DHT22;8517;53.546;10.104;2024-02-16T00:34:27;14.00;99.90
11221;DHT22;8517;53.546;10.104;2024-02-16T00:36:54;14.00;99.90
11221;DHT22;8517;53.546;10.104;2024-02-16T00:39:21;14.00;99.90
11221;DHT22;8517;53.546;10.104;2024-02-16T00:41:49;14.00;99.90
11221;DHT22;8517;53.546;10.104;2024-02-16T00:44:16;14.00;99.90
11221;DHT22;8517;53.546;10.104;2024-02-16T00:46:44;13.90;99.90
11221;DHT22;8517;53.546;10.104;2024-02-16T00:49:11;13.90;99.90
11221;DHT22;8517;53.546;10.104;2024-02-16T00:51:37;14.00;99.90
11221;DHT22;8517;53.546;10.104;2024-02-16T00:54:04;13.90;99.90
11221;DHT22;8517;53.546;10.104;2024-02-16T00:56:32;14.00;99.90
11221;DHT22;8517;53.546;10.104;2024-02-16T00:59:00;14.00;99.90
11221;DHT22;8517;53.546;10.104;2024-02-16T01:01:27;14.00;99.90
11221;DHT22;8517;53.546;10.104;2024-02-16T01:03:54;13.90;99.90
11221;DHT22;8517;53.546;10.104;2024-02-16T01:06:21;13.90;99.90
11221;DHT22;8517;53.546;10.104;2024-02-16T01:08:48;13.90;99.90
11221;DHT22;8517;53.546;10.104;2024-02-16T01:11:15;13.90;99.90
11221;DHT22;8517;53.546;10.104;2024-02-16T01:13:41;13.90;99.90
11221;DHT22;8517;53.546;10.104;2024-02-16T01:16:10;13.90;99.90
11221;DHT22;8517;53.546;10.104;2024-02-16T01:18:40;13.80;99.90
11221;DHT22;8517;53.546;10.104;2024-02-16T01:21:07;13.80;99.90
11221;DHT22;8517;53.546;10.104;2024-02-16T01:23:34;13.80;99.90
11221;DHT22;8517;53.546;10.104;2024-02-16T01:26:01;13.80;99.90
11221;DHT22;8517;53.546;10.104;2024-02-16T01:28:28;13.80;99.90
11221;DHT22;8517;53.546;10.104;2024-02-16T01:30:54;13.80;99.90
11221;DHT22;8517;53.546;10.104;2024-02-16T01:33:23;13.70;99.90
11221;DHT22;8517;53.546;10.104;2024-02-16T01:35:50;13.70;99.90
11221;DHT22;8517;53.546;10.104;2024-02-16T01:38:17;13.70;99.90
11221;DHT22;8517;53.546;10.104;2024-02-16T01:40:43;13.70;99.90
11221;DHT22;8517;53.546;10.104;2024-02-16T01:43:10;13.70;99.90
11221;DHT22;8517;53.546;10.104;2024-02-16T01:45:37;13.70;99.90
11221;DHT22;8517;53.546;10.104;2024-02-16T01:48:05;13.70;99.90
11221;DHT22;8517;53.546;10.104;2024-02-16T01:50:33;13.70;99.90
11221;DHT22;8517;53.546;10.104;2024-02-16T01:53:00;13.60;99.90
11221;DHT22;8517;53.546;10.104;2024-02-16T01:55:27;13.60;99.90
11221;DHT22;8517;53.546;10.104;2024-02-16T01:57:55;13.60;99.90
11221;DHT22;8517;53.546;10.104;2024-02-16T02:00:22;13.60;99.90
11221;DHT22;8517;53.546;10.104;2024-02-16T02:02:49;13.60;99.90
11221;DHT22;8517;53.546;10.104;2024-02-16T02:05:16;13.60;99.90
11221;DHT22;8517;53.546;10.104;2024-02-16T02:07:45;13.60;99.90
11221;DHT22;8517;53.546;10.104;2024-02-16T02:10:11;13.60;99.90
11221;DHT22;8517;53.546;10.104;2024-02-16T02:12:39;13.50;99.90
11221;DHT22;8517;53.546;10.104;2024-02-16T02:15:06;13.60;99.90
11221;DHT22;8517;53.546;10.104;2024-02-16T02:17:34;13.60;99.90
11221;DHT22;8517;53.546;10.104;2024-02-16T02:20:01;13.50;99.90
11221;DHT22;8517;53.546;10.104;2024-02-16T02:22:30;13.60;99.90
11221;DHT22;8517;53.546;10.104;2024-02-16T02:24:57;13.60;99.90
11221;DHT22;8517;53.546;10.104;2024-02-16T02:27:23;13.60;99.90
11221;DHT22;8517;53.546;10.104;2024-02-16T02:29:50;13.60;99.90
11221;DHT22;8517;53.546;10.104;2024-02-16T02:32:17;13.60;99.90
11221;DHT22;8517;53.546;10.104;2024-02-16T02:34:44;13.60;99.90
11221;DHT22;8517;53.546;10.104;2024-02-16T02:37:11;13.60;99.90
11221;DHT22;8517;53.546;10.104;2024-02-16T02:39:40;13.60;99.90
11221;DHT22;8517;53.546;10.104;2024-02-16T02:42:06;13.60;99.90
11221;DHT22;8517;53.546;10.104;2024-02-16T02:44:35;13.60;99.90
11221;DHT22;8517;53.546;10.104;2024-02-16T02:47:02;13.60;99.90
11221;DHT22;8517;53.546;10.104;2024-02-16T02:49:30;13.60;99.90
11221;DHT22;8517;53.546;10.104;2024-02-16T02:51:58;13.60;99.90
11221;DHT22;8517;53.546;10.104;2024-02-16T02:54:25;13.50;99.90
11221;DHT22;8517;53.546;10.104;2024-02-16T02:56:53;13.50;99.90
11221;DHT22;8517;53.546;10.104;2024-02-16T02:59:20;13.60;99.90
11221;DHT22;8517;53.546;10.104;2024-02-16T03:01:46;13.50;99.90
11221;DHT22;8517;53.546;10.104;2024-02-16T03:04:13;13.50;99.90
11221;DHT22;8517;53.546;10.104;2024-02-16T03:06:40;13.50;99.90
11221;DHT22;8517;53.546;10.104;2024-02-16T03:09:07;13.50;99.90
11221;DHT22;8517;53.546;10.104;2024-02-16T03:11:34;13.50;99.90
11221;DHT22;8517;53.546;10.104;2024-02-16T03:14:03;13.40;99.90
11221;DHT22;8517;53.546;10.104;2024-02-16T03:16:30;13.50;99.90
11221;DHT22;8517;53.546;10.104;2024-02-16T03:18:57;13.50;99.90
11221;DHT22;8517;53.546;10.104;2024-02-16T03:21:24;13.50;99.90
11221;DHT22;8517;53.546;10.104;2024-02-16T03:23:51;13.50;99.90
11221;DHT22;8517;53.546;10.104;2024-02-16T03:26:19;13.50;99.90
11221;DHT22;8517;53.546;10.104;2024-02-16T03:28:46;13.50;99.90
11221;DHT22;8517;53.546;10.104;2024-02-16T03:31:18;13.50;99.90
11221;DHT22;8517;53.546;10.104;2024-02-16T03:33:46;13.50;99.90
11221;DHT22;8517;53.546;10.104;2024-02-16T03:36:12;13.50;99.90
11221;DHT22;8517;53.546;10.104;2024-02-16T03:38:41;13.50;99.90
11221;DHT22;8517;53.546;10.104;2024-02-16T03:41:09;13.50;99.90
11221;DHT22;8517;53.546;10.104;2024-02-16T03:43:38;13.50;99.90
11221;DHT22;8517;53.546;10.104;2024-02-16T03:46:05;13.50;99.90
11221;DHT22;8517;53.546;10.104;2024-02-16T03:48:33;13.50;99.90
11221;DHT22;8517;53.546;10.104;2024-02-16T03:51:00;13.50;99.90
11221;DHT22;8517;53.546;10.104;2024-02-16T03:53:28;13.40;99.90
11221;DHT22;8517;53.546;10.104;2024-02-16T03:55:55;13.40;99.90
11221;DHT22;8517;53.546;10.104;2024-02-16T03:58:22;13.40;99.90
11221;DHT22;8517;53.546;10.104;2024-02-16T04:00:49;13.40;99.90
11221;DHT22;8517;53.546;10.104;2024-02-16T04:03:16;13.40;99.90
11221;DHT22;8517;53.546;10.104;2024-02-16T04:05:44;13.30;99.90
11221;DHT22;8517;53.546;10.104;2024-02-16T04:08:11;13.40;99.90
11221;DHT22;8517;53.546;10.104;2024-02-16T04:10:38;13.30;99.90
11221;DHT22;8517;53.546;10.104;2024-02-16T04:13:04;13.30;99.90
11221;DHT22;8517;53.546;10.104;2024-02-16T04:15:31;13.30;99.90
11221;DHT22;8517;53.546;10.104;2024-02-16T04:17:58;13.30;99.90
11221;DHT22;8517;53.546;10.104;2024-02-16T04:20:25;13.30;99.90
11221;DHT22;8517;53.546;10.104;2024-02-16T04:22:53;13.30;99.90
11221;DHT22;8517;53.546;10.104;2024-02-16T04:25:19;13.30;99.90
11221;DHT22;8517;53.546;10.104;2024-02-16T04:27:46;13.30;99.90
11221;DHT22;8517;53.546;10.104;2024-02-16T04:30:13;13.30;99.90
11221;DHT22;8517;53.546;10.104;2024-02-16T04:32:40;13.40;99.90
11221;DHT22;8517;53.546;10.104;2024-02-16T04:35:07;13.40;99.90
11221;DHT22;8517;53.546;10.104;2024-02-16T04:37:37;13.40;99.90
11221;DHT22;8517;53.546;10.104;2024-02-16T04:40:06;13.40;99.90
11221;DHT22;8517;53.546;10.104;2024-02-16T04:42:33;13.40;99.90
11221;DHT22;8517;53.546;10.104;2024-02-16T04:45:00;13.40;99.90
11221;DHT22;8517;53.546;10.104;2024-02-16T04:47:27;13.40;99.90
11221;DHT22;8517;53.546;10.104;2024-02-16T04:49:54;13.40;99.90
11221;DHT22;8517;53.546;10.104;2024-02-16T04:52:20;13.40;99.90
11221;DHT22;8517;53.546;10.104;2024-02-16T04:54:47;13.40;99.90
11221;DHT22;8517;53.546;10.104;2024-02-16T04:57:15;13.40;99.90
11221;DHT22;8517;53.546;10.104;2024-02-16T04:59:42;13.40;99.90
11221;DHT22;8517;53.546;10.104;2024-02-16T05:02:09;13.40;99.90
11221;DHT22;8517;53.546;10.104;2024-02-16T05:04:36;13.40;99.90
11221;DHT22;8517;53.546;10.104;2024-02-16T05:07:03;13.40;99.90
11221;DHT22;8517;53.546;10.104;2024-02-16T05:09:32;13.40;99.90
11221;DHT22;8517;53.546;10.104;2024-02-16T05:11:59;13.40;99.90
11221;DHT22;8517;53.546;10.104;2024-02-16T05:14:27;13.40;99.90
11221;DHT22;8517;53.546;10.104;2024-02-16T05:16:53;13.40;99.90
11221;DHT22;8517;53.546;10.104;2024-02-16T05:19:20;13.40;99.90
11221;DHT22;8517;53.546;10.104;2024-02-16T05:21:47;13.40;99.90
11221;DHT22;8517;53.546;10.104;2024-02-16T05:24:14;13.40;99.90
11221;DHT22;8517;53.546;10.104;2024-02-16T05:26:40;13.40;99.90
11221;DHT22;8517;53.546;10.104;2024-02-16T05:29:07;13.40;99.90
11221;DHT22;8517;53.546;10.104;2024-02-16T05:31:35;13.40;99.90
11221;DHT22;8517;53.546;10.104;2024-02-16T05:34:02;13.40;99.90
11221;DHT22;8517;53.546;10.104;2024-02-16T05:36:29;13.40;99.90
11221;DHT22;8517;53.546;10.104;2024-02-16T05:39:01;13.40;99.90
11221;DHT22;8517;53.546;10.104;2024-02-16T05:41:45;13.40;99.90
11221;DHT22;8517;53.546;10.104;2024-02-16T05:44:12;13.40;99.90
11221;DHT22;8517;53.546;10.104;2024-02-16T05:46:40;13.40;99.90
11221;DHT22;8517;53.546;10.104;2024-02-16T05:49:07;13.40;99.90
11221;DHT22;8517;53.546;10.104;2024-02-16T05:51:35;13.40;99.90
11221;DHT22;8517;53.546;10.104;2024-02-16T05:54:02;13.40;99.90
11221;DHT22;8517;53.546;10.104;2024-02-16T05:56:29;13.30;99.90
11221;DHT22;8517;53.546;10.104;2024-02-16T05:58:59;13.40;99.90
11221;DHT22;8517;53.546;10.104;2024-02-16T06:01:26;13.30;99.90
11221;DHT22;8517;53.546;10.104;2024-02-16T06:03:54;13.40;99.90
11221;DHT22;8517;53.546;10.104;2024-02-16T06:06:21;13.40;99.90
11221;DHT22;8517;53.546;10.104;2024-02-16T06:08:48;13.30;99.90
11221;DHT22;8517;53.546;10.104;2024-02-16T06:11:15;13.30;99.90
11221;DHT22;8517;53.546;10.104;2024-02-16T06:13:42;13.30;99.90
11221;DHT22;8517;53.546;10.104;2024-02-16T06:16:09;13.30;99.90
11221;DHT22;8517;53.546;10.104;2024-02-16T06:18:36;13.30;99.90
11221;DHT22;8517;53.546;10.104;2024-02-16T06:21:04;13.30;99.90
11221;DHT22;8517;53.546;10.104;2024-02-16T06:23:31;13.30;99.90
11221;DHT22;8517;53.546;10.104;2024-02-16T06:25:58;13.30;99.90
11221;DHT22;8517;53.546;10.104;2024-02-16T06:28:25;13.30;99.90
11221;DHT22;8517;53.546;10.104;2024-02-16T06:30:51;13.30;99.90
11221;DHT22;8517;53.546;10.104;2024-02-16T06:33:18;13.30;99.90
11221;DHT22;8517;53.546;10.104;2024-02-16T06:35:46;13.30;99.90
11221;DHT22;8517;53.546;10.104;2024-02-16T06:38:17;13.30;99.90
11221;DHT22;8517;53.546;10.104;2024-02-16T06:40:43;13.20;99.90
11221;DHT22;8517;53.546;10.104;2024-02-16T06:43:10;13.20;99.90
11221;DHT22;8517;53.546;10.104;2024-02-16T06:45:37;13.20;99.90
11221;DHT22;8517;53.546;10.104;2024-02-16T06:48:05;13.20;99.90
11221;DHT22;8517;53.546;10.104;2024-02-16T06:50:32;13.20;99.90
11221;DHT22;8517;53.546;10.104;2024-02-16T06:52:59;13.20;99.90
11221;DHT22;8517;53.546;10.104;2024-02-16T06:55:27;13.20;99.90
11221;DHT22;8517;53.546;10.104;2024-02-16T06:57:54;13.20;99.90
11221;DHT22;8517;53.546;10.104;2024-02-16T07:00:21;13.20;99.90
11221;DHT22;8517;53.546;10.104;2024-02-16T07:02:48;13.10;99.90
11221;DHT22;8517;53.546;10.104;2024-02-16T07:05:15;13.10;99.90
11221;DHT22;8517;53.546;10.104;2024-02-16T07:07:44;13.20;99.90
11221;DHT22;8517;53.546;10.104;2024-02-16T07:10:11;13.10;99.90
11221;DHT22;8517;53.546;10.104;2024-02-16T07:12:40;13.10;99.90
11221;DHT22;8517;53.546;10.104;2024-02-16T07:15:08;13.20;99.90
11221;DHT22;8517;53.546;10.104;2024-02-16T07:17:35;13.10;99.90
11221;DHT22;8517;53.546;10.104;2024-02-16T07:20:02;13.20;99.90
11221;DHT22;8517;53.546;10.104;2024-02-16T07:22:30;13.10;99.90
11221;DHT22;8517;53.546;10.104;2024-02-16T07:24:58;13.10;99.90
11221;DHT22;8517;53.546;10.104;2024-02-16T07:27:25;13.10;99.90
11221;DHT22;8517;53.546;10.104;2024-02-16T07:29:53;13.10;99.90
11221;DHT22;8517;53.546;10.104;2024-02-16T07:32:20;13.10;99.90
11221;DHT22;8517;53.546;10.104;2024-02-16T07:34:47;13.10;99.90
11221;DHT22;8517;53.546;10.104;2024-02-16T07:37:14;13.10;99.90
11221;DHT22;8517;53.546;10.104;2024-02-16T07:39:42;13.10;99.90
11221;DHT22;8517;53.546;10.104;2024-02-16T07:42:09;13.20;99.90
11221;DHT22;8517;53.546;10.104;2024-02-16T07:44:36;13.20;99.90
11221;DHT22;8517;53.546;10.104;2024-02-16T07:47:05;13.20;99.90
11221;DHT22;8517;53.546;10.104;2024-02-16T07:49:32;13.30;99.90
11221;DHT22;8517;53.546;10.104;2024-02-16T07:51:58;13.30;99.90
11221;DHT22;8517;53.546;10.104;2024-02-16T07:54:25;13.40;99.90
11221;DHT22;8517;53.546;10.104;2024-02-16T07:56:52;13.50;99.90
11221;DHT22;8517;53.546;10.104;2024-02-16T07:59:19;13.50;99.90
11221;DHT22;8517;53.546;10.104;2024-02-16T08:01:45;13.60;99.90
11221;DHT22;8517;53.546;10.104;2024-02-16T08:04:14;13.60;99.90
11221;DHT22;8517;53.546;10.104;2024-02-16T08:06:41;13.60;99.90
11221;DHT22;8517;53.546;10.104;2024-02-16T08:09:07;13.70;99.90
11221;DHT22;8517;53.546;10.104;2024-02-16T08:11:34;13.70;99.90
11221;DHT22;8517;53.546;10.104;2024-02-16T08:14:01;13.70;99.90
11221;DHT22;8517;53.546;10.104;2024-02-16T08:16:28;13.70;99.90
11221;DHT22;8517;53.546;10.104;2024-02-16T08:18:55;13.80;99.90
11221;DHT22;8517;53.546;10.104;2024-02-16T08:21:24;13.80;99.90
11221;DHT22;8517;53.546;10.104;2024-02-16T08:23:50;13.80;99.90
11221;DHT22;8517;53.546;10.104;2024-02-16T08:26:17;13.80;99.90
11221;DHT22;8517;53.546;10.104;2024-02-16T08:28:44;13.90;99.90
11221;DHT22;8517;53.546;10.104;2024-02-16T08:31:15;13.90;99.90
11221;DHT22;8517;53.546;10.104;2024-02-16T08:33:43;14.00;99.90
11221;DHT22;8517;53.546;10.104;2024-02-16T08:36:10;14.10;99.90
11221;DHT22;8517;53.546;10.104;2024-02-16T08:38:38;14.10;99.90
11221;DHT22;8517;53.546;10.104;2024-02-16T08:41:05;14.10;99.90
11221;DHT22;8517;53.546;10.104;2024-02-16T08:43:32;14.20;99.90
11221;DHT22;8517;53.546;10.104;2024-02-16T08:45:59;14.20;99.90
11221;DHT22;8517;53.546;10.104;2024-02-16T08:48:26;14.10;99.90
11221;DHT22;8517;53.546;10.104;2024-02-16T08:50:52;14.10;99.90
11221;DHT22;8517;53.546;10.104;2024-02-16T08:53:19;14.00;99.90
11221;DHT22;8517;53.546;10.104;2024-02-16T08:55:47;14.00;99.90
11221;DHT22;8517;53.546;10.104;2024-02-16T08:58:14;13.90;99.90
11221;DHT22;8517;53.546;10.104;2024-02-16T09:00:41;13.80;99.90
11221;DHT22;8517;53.546;10.104;2024-02-16T09:03:09;13.80;99.90
11221;DHT22;8517;53.546;10.104;2024-02-16T09:05:36;13.70;99.90
11221;DHT22;8517;53.546;10.104;2024-02-16T09:08:03;13.60;99.90
11221;DHT22;8517;53.546;10.104;2024-02-16T09:10:31;13.60;99.90
11221;DHT22;8517;53.546;10.104;2024-02-16T09:13:00;13.60;99.90
11221;DHT22;8517;53.546;10.104;2024-02-16T09:15:27;13.60;99.90
11221;DHT22;8517;53.546;10.104;2024-02-16T09:17:54;13.60;99.90
11221;DHT22;8517;53.546;10.104;2024-02-16T09:20:20;13.60;99.90
11221;DHT22;8517;53.546;10.104;2024-02-16T09:22:48;13.60;99.90
11221;DHT22;8517;53.546;10.104;2024-02-16T09:25:15;13.70;99.90
11221;DHT22;8517;53.546;10.104;2024-02-16T09:27:43;13.70;99.90
11221;DHT22;8517;53.546;10.104;2024-02-16T09:30:13;13.70;99.90
11221;DHT22;8517;53.546;10.104;2024-02-16T09:32:40;13.80;99.90
11221;DHT22;8517;53.546;10.104;2024-02-16T09:35:08;13.80;99.90
11221;DHT22;8517;53.546;10.104;2024-02-16T09:37:35;13.90;99.90
11221;DHT22;8517;53.546;10.104;2024-02-16T09:40:04;13.90;99.90
11221;DHT22;8517;53.546;10.104;2024-02-16T09:42:34;13.90;99.90
11221;DHT22;8517;53.546;10.104;2024-02-16T09:45:04;14.00;99.90
11221;DHT22;8517;53.546;10.104;2024-02-16T09:47:34;14.00;99.90
11221;DHT22;8517;53.546;10.104;2024-02-16T09:50:01;14.00;99.90
11221;DHT22;8517;53.546;10.104;2024-02-16T09:52:30;14.10;99.90
11221;DHT22;8517;53.546;10.104;2024-02-16T09:54:58;14.10;99.90
11221;DHT22;8517;53.546;10.104;2024-02-16T09:57:25;14.20;99.90
11221;DHT22;8517;53.546;10.104;2024-02-16T09:59:53;14.20;99.90
11221;DHT22;8517;53.546;10.104;2024-02-16T10:02:21;14.20;99.90
11221;DHT22;8517;53.546;10.104;2024-02-16T10:04:50;14.30;99.90
11221;DHT22;8517;53.546;10.104;2024-02-16T10:07:30;14.40;99.90
11221;DHT22;8517;53.546;10.104;2024-02-16T10:09:56;14.40;99.90
11221;DHT22;8517;53.546;10.104;2024-02-16T10:12:23;14.50;99.90
11221;DHT22;8517;53.546;10.104;2024-02-16T10:14:54;14.50;99.90
11221;DHT22;8517;53.546;10.104;2024-02-16T10:17:22;14.60;99.90
11221;DHT22;8517;53.546;10.104;2024-02-16T10:19:56;14.70;99.90
11221;DHT22;8517;53.546;10.104;2024-02-16T10:22:23;14.70;99.90
11221;DHT22;8517;53.546;10.104;2024-02-16T10:24:50;14.80;99.90
11221;DHT22;8517;53.546;10.104;2024-02-16T10:27:17;14.90;99.90
11221;DHT22;8517;53.546;10.104;2024-02-16T10:29:47;15.00;99.90
11221;DHT22;8517;53.546;10.104;2024-02-16T10:32:15;15.10;99.90
11221;DHT22;8517;53.546;10.104;2024-02-16T10:34:43;15.20;99.90
11221;DHT22;8517;53.546;10.104;2024-02-16T10:37:13;15.30;99.90
11221;DHT22;8517;53.546;10.104;2024-02-16T10:39:41;15.40;99.90
11221;DHT22;8517;53.546;10.104;2024-02-16T10:42:10;15.50;99.90
11221;DHT22;8517;53.546;10.104;2024-02-16T10:44:37;15.60;99.90
11221;DHT22;8517;53.546;10.104;2024-02-16T10:47:05;15.70;99.90
11221;DHT22;8517;53.546;10.104;2024-02-16T10:49:32;15.80;99.90
11221;DHT22;8517;53.546;10.104;2024-02-16T10:52:00;15.80;99.90
11221;DHT22;8517;53.546;10.104;2024-02-16T10:54:32;15.90;99.90
11221;DHT22;8517;53.546;10.104;2024-02-16T10:57:00;15.90;99.90
11221;DHT22;8517;53.546;10.104;2024-02-16T10:59:26;16.00;99.90
11221;DHT22;8517;53.546;10.104;2024-02-16T11:02:03;16.00;99.90
11221;DHT22;8517;53.546;10.104;2024-02-16T11:04:36;16.10;99.90
11221;DHT22;8517;53.546;10.104;2024-02-16T11:07:11;16.30;99.90
11221;DHT22;8517;53.546;10.104;2024-02-16T11:09:40;16.40;99.90
11221;DHT22;8517;53.546;10.104;2024-02-16T11:12:07;16.50;99.90
11221;DHT22;8517;53.546;10.104;2024-02-16T11:14:35;16.40;99.90
11221;DHT22;8517;53.546;10.104;2024-02-16T11:17:07;16.50;99.90
11221;DHT22;8517;53.546;10.104;2024-02-16T11:19:35;16.50;99.90
11221;DHT22;8517;53.546;10.104;2024-02-16T11:22:03;16.60;99.90
11221;DHT22;8517;53.546;10.104;2024-02-16T11:24:33;16.60;99.90
11221;DHT22;8517;53.546;10.104;2024-02-16T11:27:07;16.70;99.90
11221;DHT22;8517;53.546;10.104;2024-02-16T11:29:35;16.80;99.90
11221;DHT22;8517;53.546;10.104;2024-02-16T11:32:05;16.90;99.90
11221;DHT22;8517;53.546;10.104;2024-02-16T11:34:38;17.00;99.90
11221;DHT22;8517;53.546;10.104;2024-02-16T11:37:09;17.00;99.90
11221;DHT22;8517;53.546;10.104;2024-02-16T11:39:55;17.00;99.90
11221;DHT22;8517;53.546;10.104;2024-02-16T11:42:42;17.10;99.90
11221;DHT22;8517;53.546;10.104;2024-02-16T11:45:12;17.10;99.90
11221;DHT22;8517;53.546;10.104;2024-02-16T11:47:39;17.20;99.90
11221;DHT22;8517;53.546;10.104;2024-02-16T11:50:11;17.20;99.90
11221;DHT22;8517;53.546;10.104;2024-02-16T11:52:41;17.30;99.90
11221;DHT22;8517;53.546;10.104;2024-02-16T11:55:11;17.30;99.90
11221;DHT22;8517;53.546;10.104;2024-02-16T11:57:42;17.30;99.90
11221;DHT22;8517;53.546;10.104;2024-02-16T12:00:16;17.30;99.90
11221;DHT22;8517;53.546;10.104;2024-02-16T12:02:44;17.30;99.90
11221;DHT22;8517;53.546;10.104;2024-02-16T12:05:13;17.40;99.90
11221;DHT22;8517;53.546;10.104;2024-02-16T12:07:41;17.40;99.90
11221;DHT22;8517;53.546;10.104;2024-02-16T12:10:11;17.50;99.90
11221;DHT22;8517;53.546;10.104;2024-02-16T12:12:41;17.50;99.90
11221;DHT22;8517;53.546;10.104;2024-02-16T12:15:08;17.50;99.90
11221;DHT22;8517;53.546;10.104;2024-02-16T12:17:38;17.50;99.90
11221;DHT22;8517;53.546;10.104;2024-02-16T12:20:11;17.60;99.90
11221;DHT22;8517;53.546;10.104;2024-02-16T12:22:40;17.60;99.90
11221;DHT22;8517;53.546;10.104;2024-02-16T12:25:07;17.60;99.90
11221;DHT22;8517;53.546;10.104;2024-02-16T12:27:34;17.70;99.90
11221;DHT22;8517;53.546;10.104;2024-02-16T12:30:03;17.70;99.90
11221;DHT22;8517;53.546;10.104;2024-02-16T12:32:30;17.70;99.90
11221;DHT22;8517;53.546;10.104;2024-02-16T12:34:57;17.80;99.90
11221;DHT22;8517;53.546;10.104;2024-02-16T12:37:24;17.80;99.90
11221;DHT22;8517;53.546;10.104;2024-02-16T12:39:51;17.80;99.90
11221;DHT22;8517;53.546;10.104;2024-02-16T12:42:17;17.90;99.90
11221;DHT22;8517;53.546;10.104;2024-02-16T12:44:44;17.90;99.90
11221;DHT22;8517;53.546;10.104;2024-02-16T12:47:13;17.90;99.90
11221;DHT22;8517;53.546;10.104;2024-02-16T12:49:41;17.90;99.90
11221;DHT22;8517;53.546;10.104;2024-02-16T12:52:07;17.90;99.90
11221;DHT22;8517;53.546;10.104;2024-02-16T12:54:34;17.90;99.90
11221;DHT22;8517;53.546;10.104;2024-02-16T12:57:01;17.90;99.90
11221;DHT22;8517;53.546;10.104;2024-02-16T12:59:28;18.00;99.90
11221;DHT22;8517;53.546;10.104;2024-02-16T13:01:55;18.00;99.90
11221;DHT22;8517;53.546;10.104;2024-02-16T13:04:23;18.00;99.90
11221;DHT22;8517;53.546;10.104;2024-02-16T13:06:50;18.00;99.90
11221;DHT22;8517;53.546;10.104;2024-02-16T13:09:17;18.00;99.90
11221;DHT22;8517;53.546;10.104;2024-02-16T13:11:44;18.00;99.90
11221;DHT22;8517;53.546;10.104;2024-02-16T13:14:15;18.00;99.90
11221;DHT22;8517;53.546;10.104;2024-02-16T13:16:42;18.00;99.90
11221;DHT22;8517;53.546;10.104;2024-02-16T13:19:08;17.90;99.90
11221;DHT22;8517;53.546;10.104;2024-02-16T13:21:37;17.90;99.90
11221;DHT22;8517;53.546;10.104;2024-02-16T13:24:04;17.80;99.90
11221;DHT22;8517;53.546;10.104;2024-02-16T13:26:31;17.80;99.90
11221;DHT22;8517;53.546;10.104;2024-02-16T13:28:58;17.80;99.90
11221;DHT22;8517;53.546;10.104;2024-02-16T13:31:26;17.80;99.90
11221;DHT22;8517;53.546;10.104;2024-02-16T13:33:53;17.80;99.90
11221;DHT22;8517;53.546;10.104;2024-02-16T13:36:21;17.80;99.90
11221;DHT22;8517;53.546;10.104;2024-02-16T13:38:49;17.80;99.90
11221;DHT22;8517;53.546;10.104;2024-02-16T13:41:16;17.80;99.90
11221;DHT22;8517;53.546;10.104;2024-02-16T13:43:43;17.70;99.90
11221;DHT22;8517;53.546;10.104;2024-02-16T13:46:09;17.70;99.90
11221;DHT22;8517;53.546;10.104;2024-02-16T13:48:36;17.70;99.90
11221;DHT22;8517;53.546;10.104;2024-02-16T13:51:05;17.70;99.90
11221;DHT22;8517;53.546;10.104;2024-02-16T13:53:32;17.70;99.90
11221;DHT22;8517;53.546;10.104;2024-02-16T13:56:00;17.70;99.90
11221;DHT22;8517;53.546;10.104;2024-02-16T13:58:29;17.70;99.90
11221;DHT22;8517;53.546;10.104;2024-02-16T14:00:56;17.70;99.90
11221;DHT22;8517;53.546;10.104;2024-02-16T14:03:24;17.70;99.90
11221;DHT22;8517;53.546;10.104;2024-02-16T14:05:51;17.70;99.90
11221;DHT22;8517;53.546;10.104;2024-02-16T14:08:18;17.70;99.90
11221;DHT22;8517;53.546;10.104;2024-02-16T14:10:45;17.70;99.90
11221;DHT22;8517;53.546;10.104;2024-02-16T14:13:13;17.70;99.90
11221;DHT22;8517;53.546;10.104;2024-02-16T14:15:41;17.70;99.90
11221;DHT22;8517;53.546;10.104;2024-02-16T14:18:08;17.70;99.90
11221;DHT22;8517;53.546;10.104;2024-02-16T14:20:35;17.70;99.90
11221;DHT22;8517;53.546;10.104;2024-02-16T14:23:02;17.70;99.90
11221;DHT22;8517;53.546;10.104;2024-02-16T14:25:29;17.70;99.90
11221;DHT22;8517;53.546;10.104;2024-02-16T14:27:56;17.70;99.90
11221;DHT22;8517;53.546;10.104;2024-02-16T14:30:25;17.70;99.90
11221;DHT22;8517;53.546;10.104;2024-02-16T14:32:51;17.70;99.90
11221;DHT22;8517;53.546;10.104;2024-02-16T14:35:18;17.70;99.90
11221;DHT22;8517;53.546;10.104;2024-02-16T14:37:47;17.70;99.90
11221;DHT22;8517;53.546;10.104;2024-02-16T14:40:15;17.60;99.90
11221;DHT22;8517;53.546;10.104;2024-02-16T14:42:42;17.60;99.90
11221;DHT22;8517;53.546;10.104;2024-02-16T14:45:09;17.60;99.90
11221;DHT22;8517;53.546;10.104;2024-02-16T14:47:46;17.60;99.90
11221;DHT22;8517;53.546;10.104;2024-02-16T14:50:13;17.50;99.90
11221;DHT22;8517;53.546;10.104;2024-02-16T14:52:41;17.50;99.90
11221;DHT22;8517;53.546;10.104;2024-02-16T14:55:08;17.50;99.90
11221;DHT22;8517;53.546;10.104;2024-02-16T14:57:36;17.50;99.90
11221;DHT22;8517;53.546;10.104;2024-02-16T15:00:03;17.40;99.90
11221;DHT22;8517;53.546;10.104;2024-02-16T15:02:30;17.40;99.90
11221;DHT22;8517;53.546;10.104;2024-02-16T15:04:58;17.40;99.90
11221;DHT22;8517;53.546;10.104;2024-02-16T15:07:26;17.40;99.90
11221;DHT22;8517;53.546;10.104;2024-02-16T15:09:52;17.30;99.90
11221;DHT22;8517;53.546;10.104;2024-02-16T15:12:19;17.30;99.90
11221;DHT22;8517;53.546;10.104;2024-02-16T15:14:46;17.30;99.90
11221;DHT22;8517;53.546;10.104;2024-02-16T15:17:13;17.20;99.90
11221;DHT22;8517;53.546;10.104;2024-02-16T15:19:40;17.10;99.90
11221;DHT22;8517;53.546;10.104;2024-02-16T15:22:09;17.00;99.90
11221;DHT22;8517;53.546;10.104;2024-02-16T15:24:36;16.90;99.90
11221;DHT22;8517;53.546;10.104;2024-02-16T15:27:03;16.80;99.90
11221;DHT22;8517;53.546;10.104;2024-02-16T15:29:30;16.70;99.90
11221;DHT22;8517;53.546;10.104;2024-02-16T15:31:57;16.60;99.90